sensor_id;sensor_type;location;lat;lon;timestamp;temperature;humidity
23869;DHT22;12115;47.128;15.422;2023-09-07T00:01:06;15.20;99.90
23869;DHT22;12115;47.128;15.422;2023-09-07T00:03:33;15.20;99.90
23869;DHT22;12115;47.128;15.422;2023-09-07T00:06:00;15.20;99.90
23869;DHT22;12115;47.128;15.422;2023-09-07T00:08:28;15.20;99.90
23869;DHT22;12115;47.128;15.422;2023-09-07T00:10:55;15.10;99.90
23869;DHT22;12115;47.128;15.422;2023-09-07T00:13:28;15.00;99.90
23869;DHT22;12115;47.128;15.422;2023-09-07T00:16:00;15.00;99.90
23869;DHT22;12115;47.128;15.422;2023-09-07T00:18:28;15.00;99.90
23869;DHT22;12115;47.128;15.422;2023-09-07T00:20:56;15.00;99.90
23869;DHT22;12115;47.128;15.422;2023-09-07T00:23:23;15.00;99.90
23869;DHT22;12115;47.128;15.422;2023-09-07T00:25:51;14.90;99.90
23869;DHT22;12115;47.128;15.422;2023-09-07T00:28:18;14.90;99.90
23869;DHT22;12115;47.128;15.422;2023-09-07T00:30:45;14.90;99.90
23869;DHT22;12115;47.128;15.422;2023-09-07T00:33:12;14.90;99.90
23869;DHT22;12115;47.128;15.422;2023-09-07T00:35:39;14.90;99.90
23869;DHT22;12115;47.128;15.422;2023-09-07T00:38:05;14.80;99.90
23869;DHT22;12115;47.128;15.422;2023-09-07T00:40:32;14.70;99.90
23869;DHT22;12115;47.128;15.422;2023-09-07T00:42:59;14.70;99.90
23869;DHT22;12115;47.128;15.422;2023-09-07T00:45:28;14.70;99.90
23869;DHT22;12115;47.128;15.422;2023-09-07T00:47:55;14.70;99.90
23869;DHT22;12115;47.128;15.422;2023-09-07T00:50:23;14.60;99.90
23869;DHT22;12115;47.128;15.422;2023-09-07T00:52:51;14.60;99.90
23869;DHT22;12115;47.128;15.422;2023-09-07T00:55:19;14.60;99.90
23869;DHT22;12115;47.128;15.422;2023-09-07T00:57:46;14.60;99.90
23869;DHT22;12115;47.128;15.422;2023-09-07T01:00:14;14.60;99.90
23869;DHT22;12115;47.128;15.422;2023-09-07T01:02:41;14.60;99.90
23869;DHT22;12115;47.128;15.422;2023-09-07T01:05:12;14.50;99.90
23869;DHT22;12115;47.128;15.422;2023-09-07T01:07:53;14.50;99.90
23869;DHT22;12115;47.128;15.422;2023-09-07T01:10:24;14.50;99.90
23869;DHT22;12115;47.128;15.422;2023-09-07T01:12:51;14.40;99.90
23869;DHT22;12115;47.128;15.422;2023-09-07T01:15:17;14.40;99.90
23869;DHT22;12115;47.128;15.422;2023-09-07T01:17:45;14.30;99.90
23869;DHT22;12115;47.128;15.422;2023-09-07T01:20:14;14.30;99.90
23869;DHT22;12115;47.128;15.422;2023-09-07T01:22:44;14.30;99.90
23869;DHT22;12115;47.128;15.422;2023-09-07T01:25:12;14.30;99.90
23869;DHT22;12115;47.128;15.422;2023-09-07T01:27:40;14.30;99.90
23869;DHT22;12115;47.128;15.422;2023-09-07T01:30:07;14.30;99.90
23869;DHT22;12115;47.128;15.422;2023-09-07T01:32:35;14.20;99.90
23869;DHT22;12115;47.128;15.422;2023-09-07T01:35:04;14.20;99.90
23869;DHT22;12115;47.128;15.422;2023-09-07T01:37:33;14.10;99.90
23869;DHT22;12115;47.128;15.422;2023-09-07T01:40:02;14.10;99.90
23869;DHT22;12115;47.128;15.422;2023-09-07T01:42:33;14.00;99.90
23869;DHT22;12115;47.128;15.422;2023-09-07T01:45:00;14.00;99.90
23869;DHT22;12115;47.128;15.422;2023-09-07T01:47:27;14.00;99.90
23869;DHT22;12115;47.128;15.422;2023-09-07T01:49:55;14.00;99.90
23869;DHT22;12115;47.128;15.422;2023-09-07T01:52:22;14.00;99.90
23869;DHT22;12115;47.128;15.422;2023-09-07T01:54:49;14.00;99.90
23869;DHT22;12115;47.128;15.422;2023-09-07T01:57:16;14.00;99.90
23869;DHT22;12115;47.128;15.422;2023-09-07T01:59:43;13.90;99.90
23869;DHT22;12115;47.128;15.422;2023-09-07T02:02:10;13.90;99.90
23869;DHT22;12115;47.128;15.422;2023-09-07T02:04:37;13.90;99.90
23869;DHT22;12115;47.128;15.422;2023-09-07T02:07:04;13.80;99.90
23869;DHT22;12115;47.128;15.422;2023-09-07T02:09:31;13.80;99.90
23869;DHT22;12115;47.128;15.422;2023-09-07T02:11:58;13.80;99.90
23869;DHT22;12115;47.128;15.422;2023-09-07T02:14:25;13.80;99.90
23869;DHT22;12115;47.128;15.422;2023-09-07T02:16:52;13.80;99.90
23869;DHT22;12115;47.128;15.422;2023-09-07T02:19:19;13.80;99.90
23869;DHT22;12115;47.128;15.422;2023-09-07T02:21:49;13.70;99.90
23869;DHT22;12115;47.128;15.422;2023-09-07T02:24:18;13.60;99.90
23869;DHT22;12115;47.128;15.422;2023-09-07T02:26:45;13.60;99.90
23869;DHT22;12115;47.128;15.422;2023-09-07T02:29:13;13.60;99.90
23869;DHT22;12115;47.128;15.422;2023-09-07T02:31:40;13.50;99.90
23869;DHT22;12115;47.128;15.422;2023-09-07T02:34:07;13.50;99.90
23869;DHT22;12115;47.128;15.422;2023-09-07T02:36:34;13.50;99.90
23869;DHT22;12115;47.128;15.422;2023-09-07T02:39:02;13.50;99.90
23869;DHT22;12115;47.128;15.422;2023-09-07T02:41:31;13.50;99.90
23869;DHT22;12115;47.128;15.422;2023-09-07T02:43:58;13.50;99.90
23869;DHT22;12115;47.128;15.422;2023-09-07T02:46:25;13.50;99.90
23869;DHT22;12115;47.128;15.422;2023-09-07T02:48:52;13.40;99.90
23869;DHT22;12115;47.128;15.422;2023-09-07T02:51:25;13.40;99.90
23869;DHT22;12115;47.128;15.422;2023-09-07T02:53:55;13.40;99.90
23869;DHT22;12115;47.128;15.422;2023-09-07T02:56:22;13.30;99.90
23869;DHT22;12115;47.128;15.422;2023-09-07T02:58:49;13.30;99.90
23869;DHT22;12115;47.128;15.422;2023-09-07T03:01:16;13.20;99.90
23869;DHT22;12115;47.128;15.422;2023-09-07T03:03:48;13.30;99.90
23869;DHT22;12115;47.128;15.422;2023-09-07T03:06:16;13.20;99.90
23869;DHT22;12115;47.128;15.422;2023-09-07T03:08:46;13.20;99.90
23869;DHT22;12115;47.128;15.422;2023-09-07T03:11:13;13.20;99.90
23869;DHT22;12115;47.128;15.422;2023-09-07T03:13:41;13.20;99.90
23869;DHT22;12115;47.128;15.422;2023-09-07T03:16:09;13.20;99.90
23869;DHT22;12115;47.128;15.422;2023-09-07T03:18:36;13.20;99.90
23869;DHT22;12115;47.128;15.422;2023-09-07T03:21:03;13.10;99.90
23869;DHT22;12115;47.128;15.422;2023-09-07T03:23:32;13.10;99.90
23869;DHT22;12115;47.128;15.422;2023-09-07T03:26:00;13.10;99.90
23869;DHT22;12115;47.128;15.422;2023-09-07T03:28:27;13.10;99.90
23869;DHT22;12115;47.128;15.422;2023-09-07T03:30:55;13.10;99.90
23869;DHT22;12115;47.128;15.422;2023-09-07T03:33:23;13.10;99.90
23869;DHT22;12115;47.128;15.422;2023-09-07T03:35:50;13.10;99.90
23869;DHT22;12115;47.128;15.422;2023-09-07T03:38:18;13.10;99.90
23869;DHT22;12115;47.128;15.422;2023-09-07T03:40:45;13.10;99.90
23869;DHT22;12115;47.128;15.422;2023-09-07T03:43:12;13.00;99.90
23869;DHT22;12115;47.128;15.422;2023-09-07T03:45:39;13.00;99.90
23869;DHT22;12115;47.128;15.422;2023-09-07T03:48:07;13.00;99.90
23869;DHT22;12115;47.128;15.422;2023-09-07T03:50:37;13.00;99.90
23869;DHT22;12115;47.128;15.422;2023-09-07T03:53:04;12.90;99.90
23869;DHT22;12115;47.128;15.422;2023-09-07T03:55:43;12.90;99.90
23869;DHT22;12115;47.128;15.422;2023-09-07T03:58:12;12.90;99.90
23869;DHT22;12115;47.128;15.422;2023-09-07T04:00:41;12.90;99.90
23869;DHT22;12115;47.128;15.422;2023-09-07T04:05:55;12.80;99.90
23869;DHT22;12115;47.128;15.422;2023-09-07T04:08:22;12.80;99.90
23869;DHT22;12115;47.128;15.422;2023-09-07T04:10:50;12.80;99.90
23869;DHT22;12115;47.128;15.422;2023-09-07T04:13:17;12.80;99.90
23869;DHT22;12115;47.128;15.422;2023-09-07T04:15:45;12.80;99.90
23869;DHT22;12115;47.128;15.422;2023-09-07T04:18:14;12.80;99.90
23869;DHT22;12115;47.128;15.422;2023-09-07T04:20:45;12.80;99.90
23869;DHT22;12115;47.128;15.422;2023-09-07T04:23:13;12.70;99.90
23869;DHT22;12115;47.128;15.422;2023-09-07T04:25:40;12.70;99.90
23869;DHT22;12115;47.128;15.422;2023-09-07T04:28:08;12.70;99.90
23869;DHT22;12115;47.128;15.422;2023-09-07T04:30:39;12.70;99.90
23869;DHT22;12115;47.128;15.422;2023-09-07T04:33:06;12.70;99.90
23869;DHT22;12115;47.128;15.422;2023-09-07T04:35:35;12.70;99.90
23869;DHT22;12115;47.128;15.422;2023-09-07T04:38:02;12.70;99.90
23869;DHT22;12115;47.128;15.422;2023-09-07T04:40:30;12.70;99.90
23869;DHT22;12115;47.128;15.422;2023-09-07T04:42:58;12.70;99.90
23869;DHT22;12115;47.128;15.422;2023-09-07T04:45:25;12.70;99.90
23869;DHT22;12115;47.128;15.422;2023-09-07T04:47:52;12.70;99.90
23869;DHT22;12115;47.128;15.422;2023-09-07T04:50:19;12.60;99.90
23869;DHT22;12115;47.128;15.422;2023-09-07T04:52:46;12.60;99.90
23869;DHT22;12115;47.128;15.422;2023-09-07T04:55:13;12.60;99.90
23869;DHT22;12115;47.128;15.422;2023-09-07T04:57:40;12.60;99.90
23869;DHT22;12115;47.128;15.422;2023-09-07T05:00:08;12.60;99.90
23869;DHT22;12115;47.128;15.422;2023-09-07T05:02:36;12.60;99.90
23869;DHT22;12115;47.128;15.422;2023-09-07T05:05:07;12.60;99.90
23869;DHT22;12115;47.128;15.422;2023-09-07T05:07:35;12.60;99.90
23869;DHT22;12115;47.128;15.422;2023-09-07T05:10:02;12.60;99.90
23869;DHT22;12115;47.128;15.422;2023-09-07T05:12:30;12.70;99.90
23869;DHT22;12115;47.128;15.422;2023-09-07T05:14:57;12.70;99.90
23869;DHT22;12115;47.128;15.422;2023-09-07T05:17:24;12.70;99.90
23869;DHT22;12115;47.128;15.422;2023-09-07T05:19:51;12.70;99.90
23869;DHT22;12115;47.128;15.422;2023-09-07T05:22:18;12.70;99.90
23869;DHT22;12115;47.128;15.422;2023-09-07T05:24:46;12.70;99.90
23869;DHT22;12115;47.128;15.422;2023-09-07T05:27:14;12.70;99.90
23869;DHT22;12115;47.128;15.422;2023-09-07T05:29:41;12.70;99.90
23869;DHT22;12115;47.128;15.422;2023-09-07T05:32:10;12.80;99.90
23869;DHT22;12115;47.128;15.422;2023-09-07T05:34:36;12.80;99.90
23869;DHT22;12115;47.128;15.422;2023-09-07T05:37:04;12.80;99.90
23869;DHT22;12115;47.128;15.422;2023-09-07T05:39:31;12.90;99.90
23869;DHT22;12115;47.128;15.422;2023-09-07T05:41:58;12.90;99.90
23869;DHT22;12115;47.128;15.422;2023-09-07T05:44:25;13.00;99.90
23869;DHT22;12115;47.128;15.422;2023-09-07T05:46:52;13.00;99.90
23869;DHT22;12115;47.128;15.422;2023-09-07T05:49:19;13.10;99.90
23869;DHT22;12115;47.128;15.422;2023-09-07T05:51:46;13.20;99.90
23869;DHT22;12115;47.128;15.422;2023-09-07T05:54:14;13.30;99.90
23869;DHT22;12115;47.128;15.422;2023-09-07T05:56:41;13.40;99.90
23869;DHT22;12115;47.128;15.422;2023-09-07T05:59:08;13.50;99.90
23869;DHT22;12115;47.128;15.422;2023-09-07T06:01:35;13.60;99.90
23869;DHT22;12115;47.128;15.422;2023-09-07T06:04:02;13.70;99.90
23869;DHT22;12115;47.128;15.422;2023-09-07T06:06:29;13.70;99.90
23869;DHT22;12115;47.128;15.422;2023-09-07T06:08:56;13.80;99.90
23869;DHT22;12115;47.128;15.422;2023-09-07T06:11:26;13.90;99.90
23869;DHT22;12115;47.128;15.422;2023-09-07T06:13:53;14.00;99.90
23869;DHT22;12115;47.128;15.422;2023-09-07T06:16:20;14.10;99.90
23869;DHT22;12115;47.128;15.422;2023-09-07T06:18:47;14.20;99.90
23869;DHT22;12115;47.128;15.422;2023-09-07T06:21:14;14.30;99.90
23869;DHT22;12115;47.128;15.422;2023-09-07T06:23:41;14.50;99.90
23869;DHT22;12115;47.128;15.422;2023-09-07T06:26:08;14.50;99.90
23869;DHT22;12115;47.128;15.422;2023-09-07T06:28:35;14.60;99.90
23869;DHT22;12115;47.128;15.422;2023-09-07T06:31:02;14.70;99.90
23869;DHT22;12115;47.128;15.422;2023-09-07T06:33:30;14.80;99.90
23869;DHT22;12115;47.128;15.422;2023-09-07T06:35:56;14.90;99.90
23869;DHT22;12115;47.128;15.422;2023-09-07T06:38:28;14.90;99.90
23869;DHT22;12115;47.128;15.422;2023-09-07T06:40:56;15.10;99.90
23869;DHT22;12115;47.128;15.422;2023-09-07T06:43:23;15.20;99.90
23869;DHT22;12115;47.128;15.422;2023-09-07T06:45:52;15.30;99.90
23869;DHT22;12115;47.128;15.422;2023-09-07T06:48:20;15.40;99.90
23869;DHT22;12115;47.128;15.422;2023-09-07T06:50:47;15.40;99.90
23869;DHT22;12115;47.128;15.422;2023-09-07T06:53:15;15.60;99.90
23869;DHT22;12115;47.128;15.422;2023-09-07T06:55:42;15.90;99.90
23869;DHT22;12115;47.128;15.422;2023-09-07T06:58:09;16.00;99.90
23869;DHT22;12115;47.128;15.422;2023-09-07T07:00:36;16.10;99.90
23869;DHT22;12115;47.128;15.422;2023-09-07T07:03:04;16.30;99.90
23869;DHT22;12115;47.128;15.422;2023-09-07T07:05:31;16.40;99.90
23869;DHT22;12115;47.128;15.422;2023-09-07T07:08:00;16.50;99.90
23869;DHT22;12115;47.128;15.422;2023-09-07T07:10:27;16.60;99.90
23869;DHT22;12115;47.128;15.422;2023-09-07T07:12:54;16.70;99.90
23869;DHT22;12115;47.128;15.422;2023-09-07T07:15:21;16.70;99.90
23869;DHT22;12115;47.128;15.422;2023-09-07T07:17:48;17.00;99.90
23869;DHT22;12115;47.128;15.422;2023-09-07T07:20:15;17.00;99.90
23869;DHT22;12115;47.128;15.422;2023-09-07T07:22:43;17.10;99.90
23869;DHT22;12115;47.128;15.422;2023-09-07T07:25:13;17.20;99.90
23869;DHT22;12115;47.128;15.422;2023-09-07T07:27:39;17.50;99.90
23869;DHT22;12115;47.128;15.422;2023-09-07T07:30:07;17.60;99.90
23869;DHT22;12115;47.128;15.422;2023-09-07T07:32:34;17.70;99.90
23869;DHT22;12115;47.128;15.422;2023-09-07T07:35:01;17.80;99.90
23869;DHT22;12115;47.128;15.422;2023-09-07T07:37:28;18.20;99.90
23869;DHT22;12115;47.128;15.422;2023-09-07T07:39:55;18.30;99.90
23869;DHT22;12115;47.128;15.422;2023-09-07T07:42:23;18.60;99.90
23869;DHT22;12115;47.128;15.422;2023-09-07T07:44:51;18.80;99.90
23869;DHT22;12115;47.128;15.422;2023-09-07T07:47:18;19.00;99.90
23869;DHT22;12115;47.128;15.422;2023-09-07T07:49:45;19.10;99.90
23869;DHT22;12115;47.128;15.422;2023-09-07T07:52:12;19.10;99.90
23869;DHT22;12115;47.128;15.422;2023-09-07T07:54:40;19.20;99.90
23869;DHT22;12115;47.128;15.422;2023-09-07T07:57:07;19.30;99.90
23869;DHT22;12115;47.128;15.422;2023-09-07T07:59:34;19.30;99.90
23869;DHT22;12115;47.128;15.422;2023-09-07T08:02:02;19.30;99.90
23869;DHT22;12115;47.128;15.422;2023-09-07T08:04:29;19.50;99.90
23869;DHT22;12115;47.128;15.422;2023-09-07T08:06:59;19.80;99.90
23869;DHT22;12115;47.128;15.422;2023-09-07T08:09:32;19.90;99.90
23869;DHT22;12115;47.128;15.422;2023-09-07T08:11:59;20.00;99.90
23869;DHT22;12115;47.128;15.422;2023-09-07T08:14:31;20.10;99.90
23869;DHT22;12115;47.128;15.422;2023-09-07T08:16:58;20.20;99.90
23869;DHT22;12115;47.128;15.422;2023-09-07T08:19:26;20.20;99.90
23869;DHT22;12115;47.128;15.422;2023-09-07T08:21:55;20.40;99.90
23869;DHT22;12115;47.128;15.422;2023-09-07T08:24:23;20.50;99.90
23869;DHT22;12115;47.128;15.422;2023-09-07T08:26:50;20.50;99.90
23869;DHT22;12115;47.128;15.422;2023-09-07T08:29:17;20.60;99.90
23869;DHT22;12115;47.128;15.422;2023-09-07T08:31:47;20.80;99.90
23869;DHT22;12115;47.128;15.422;2023-09-07T08:34:15;20.90;99.90
23869;DHT22;12115;47.128;15.422;2023-09-07T08:36:42;20.90;99.90
23869;DHT22;12115;47.128;15.422;2023-09-07T08:39:09;21.20;99.90
23869;DHT22;12115;47.128;15.422;2023-09-07T08:41:40;21.30;99.90
23869;DHT22;12115;47.128;15.422;2023-09-07T08:44:27;21.40;99.90
23869;DHT22;12115;47.128;15.422;2023-09-07T08:46:55;21.50;99.90
23869;DHT22;12115;47.128;15.422;2023-09-07T08:49:22;21.70;99.90
23869;DHT22;12115;47.128;15.422;2023-09-07T08:51:51;21.70;99.90
23869;DHT22;12115;47.128;15.422;2023-09-07T08:54:20;21.90;99.90
23869;DHT22;12115;47.128;15.422;2023-09-07T08:56:47;22.20;99.90
23869;DHT22;12115;47.128;15.422;2023-09-07T08:59:14;22.10;99.90
23869;DHT22;12115;47.128;15.422;2023-09-07T09:01:41;22.20;99.90
23869;DHT22;12115;47.128;15.422;2023-09-07T09:04:09;22.30;99.90
23869;DHT22;12115;47.128;15.422;2023-09-07T09:06:36;22.50;99.90
23869;DHT22;12115;47.128;15.422;2023-09-07T09:09:03;22.50;99.90
23869;DHT22;12115;47.128;15.422;2023-09-07T09:11:33;22.50;99.90
23869;DHT22;12115;47.128;15.422;2023-09-07T09:14:00;22.60;99.90
23869;DHT22;12115;47.128;15.422;2023-09-07T09:16:31;22.70;99.90
23869;DHT22;12115;47.128;15.422;2023-09-07T09:18:58;22.80;99.90
23869;DHT22;12115;47.128;15.422;2023-09-07T09:21:27;22.80;99.90
23869;DHT22;12115;47.128;15.422;2023-09-07T09:23:56;22.80;99.90
23869;DHT22;12115;47.128;15.422;2023-09-07T09:26:24;22.80;99.90
23869;DHT22;12115;47.128;15.422;2023-09-07T09:28:56;22.90;99.90
23869;DHT22;12115;47.128;15.422;2023-09-07T09:31:24;23.20;99.90
23869;DHT22;12115;47.128;15.422;2023-09-07T09:33:52;23.30;99.90
23869;DHT22;12115;47.128;15.422;2023-09-07T09:36:20;23.40;99.90
23869;DHT22;12115;47.128;15.422;2023-09-07T09:38:49;23.50;99.90
23869;DHT22;12115;47.128;15.422;2023-09-07T09:41:17;23.70;99.90
23869;DHT22;12115;47.128;15.422;2023-09-07T09:43:46;23.50;99.90
23869;DHT22;12115;47.128;15.422;2023-09-07T09:46:19;23.50;99.90
23869;DHT22;12115;47.128;15.422;2023-09-07T09:48:47;23.60;99.90
23869;DHT22;12115;47.128;15.422;2023-09-07T09:51:15;23.80;99.90
23869;DHT22;12115;47.128;15.422;2023-09-07T09:53:42;23.90;99.90
23869;DHT22;12115;47.128;15.422;2023-09-07T09:56:10;24.20;99.90
23869;DHT22;12115;47.128;15.422;2023-09-07T09:58:38;24.30;99.90
23869;DHT22;12115;47.128;15.422;2023-09-07T10:01:06;24.50;99.90
23869;DHT22;12115;47.128;15.422;2023-09-07T10:03:38;24.50;99.90
23869;DHT22;12115;47.128;15.422;2023-09-07T10:06:27;24.30;99.90
23869;DHT22;12115;47.128;15.422;2023-09-07T10:08:59;24.40;99.90
23869;DHT22;12115;47.128;15.422;2023-09-07T10:11:30;24.70;99.90
23869;DHT22;12115;47.128;15.422;2023-09-07T10:13:59;24.80;99.90
23869;DHT22;12115;47.128;15.422;2023-09-07T10:16:27;24.80;99.90
23869;DHT22;12115;47.128;15.422;2023-09-07T10:18:54;24.70;99.90
23869;DHT22;12115;47.128;15.422;2023-09-07T10:21:25;24.80;99.90
23869;DHT22;12115;47.128;15.422;2023-09-07T10:23:55;24.80;99.90
23869;DHT22;12115;47.128;15.422;2023-09-07T10:26:22;24.80;99.90
23869;DHT22;12115;47.128;15.422;2023-09-07T10:28:59;24.80;99.80
23869;DHT22;12115;47.128;15.422;2023-09-07T10:31:27;24.80;99.90
23869;DHT22;12115;47.128;15.422;2023-09-07T10:34:13;24.80;99.90
23869;DHT22;12115;47.128;15.422;2023-09-07T10:36:40;24.80;99.90
23869;DHT22;12115;47.128;15.422;2023-09-07T10:39:08;25.10;99.90
23869;DHT22;12115;47.128;15.422;2023-09-07T10:41:44;25.20;99.90
23869;DHT22;12115;47.128;15.422;2023-09-07T10:44:11;25.10;99.90
23869;DHT22;12115;47.128;15.422;2023-09-07T10:46:40;25.00;99.90
23869;DHT22;12115;47.128;15.422;2023-09-07T10:49:08;24.90;99.90
23869;DHT22;12115;47.128;15.422;2023-09-07T10:51:46;24.80;99.80
23869;DHT22;12115;47.128;15.422;2023-09-07T10:54:14;24.70;99.90
23869;DHT22;12115;47.128;15.422;2023-09-07T10:56:46;24.90;99.00
23869;DHT22;12115;47.128;15.422;2023-09-07T10:59:14;25.10;99.60
23869;DHT22;12115;47.128;15.422;2023-09-07T11:01:43;25.10;97.90
23869;DHT22;12115;47.128;15.422;2023-09-07T11:04:10;25.20;99.00
23869;DHT22;12115;47.128;15.422;2023-09-07T11:06:39;25.40;99.10
23869;DHT22;12115;47.128;15.422;2023-09-07T11:09:08;25.30;98.20
23869;DHT22;12115;47.128;15.422;2023-09-07T11:11:38;25.30;98.00
23869;DHT22;12115;47.128;15.422;2023-09-07T11:14:05;25.50;99.30
23869;DHT22;12115;47.128;15.422;2023-09-07T11:16:33;25.70;97.90
23869;DHT22;12115;47.128;15.422;2023-09-07T11:19:04;25.60;97.50
23869;DHT22;12115;47.128;15.422;2023-09-07T11:21:32;25.60;97.70
23869;DHT22;12115;47.128;15.422;2023-09-07T11:24:01;25.60;97.70
23869;DHT22;12115;47.128;15.422;2023-09-07T11:26:44;25.40;96.80
23869;DHT22;12115;47.128;15.422;2023-09-07T11:29:18;25.40;97.80
23869;DHT22;12115;47.128;15.422;2023-09-07T11:31:45;25.40;96.50
23869;DHT22;12115;47.128;15.422;2023-09-07T11:34:13;25.30;95.70
23869;DHT22;12115;47.128;15.422;2023-09-07T11:36:41;25.40;96.70
23869;DHT22;12115;47.128;15.422;2023-09-07T11:39:09;25.50;95.90
23869;DHT22;12115;47.128;15.422;2023-09-07T11:41:43;25.50;96.70
23869;DHT22;12115;47.128;15.422;2023-09-07T11:44:11;25.60;95.60
23869;DHT22;12115;47.128;15.422;2023-09-07T11:46:40;25.50;95.20
23869;DHT22;12115;47.128;15.422;2023-09-07T11:49:07;25.50;95.80
23869;DHT22;12115;47.128;15.422;2023-09-07T11:51:37;25.50;95.20
23869;DHT22;12115;47.128;15.422;2023-09-07T11:54:04;25.60;96.00
23869;DHT22;12115;47.128;15.422;2023-09-07T11:56:31;25.60;94.30
23869;DHT22;12115;47.128;15.422;2023-09-07T11:58:59;25.80;95.10
23869;DHT22;12115;47.128;15.422;2023-09-07T12:01:26;25.70;94.50
23869;DHT22;12115;47.128;15.422;2023-09-07T12:03:54;25.70;94.60
23869;DHT22;12115;47.128;15.422;2023-09-07T12:06:21;25.70;95.60
23869;DHT22;12115;47.128;15.422;2023-09-07T12:09:04;25.90;96.00
23869;DHT22;12115;47.128;15.422;2023-09-07T12:11:33;25.90;94.90
23869;DHT22;12115;47.128;15.422;2023-09-07T12:14:00;26.00;95.50
23869;DHT22;12115;47.128;15.422;2023-09-07T12:16:28;26.10;96.50
23869;DHT22;12115;47.128;15.422;2023-09-07T12:18:55;26.30;94.40
23869;DHT22;12115;47.128;15.422;2023-09-07T12:21:22;25.90;93.30
23869;DHT22;12115;47.128;15.422;2023-09-07T12:23:49;25.90;94.90
23869;DHT22;12115;47.128;15.422;2023-09-07T12:26:16;25.90;94.80
23869;DHT22;12115;47.128;15.422;2023-09-07T12:28:46;25.90;94.00
23869;DHT22;12115;47.128;15.422;2023-09-07T12:31:13;25.80;93.60
23869;DHT22;12115;47.128;15.422;2023-09-07T12:33:42;26.10;94.10
23869;DHT22;12115;47.128;15.422;2023-09-07T12:36:09;26.20;95.20
23869;DHT22;12115;47.128;15.422;2023-09-07T12:38:37;26.30;94.00
23869;DHT22;12115;47.128;15.422;2023-09-07T12:41:04;26.30;94.70
23869;DHT22;12115;47.128;15.422;2023-09-07T12:43:31;26.30;93.60
23869;DHT22;12115;47.128;15.422;2023-09-07T12:46:02;26.30;93.70
23869;DHT22;12115;47.128;15.422;2023-09-07T12:48:30;26.30;92.80
23869;DHT22;12115;47.128;15.422;2023-09-07T12:50:57;26.30;94.10
23869;DHT22;12115;47.128;15.422;2023-09-07T12:53:24;26.20;94.10
23869;DHT22;12115;47.128;15.422;2023-09-07T12:55:53;26.00;93.50
23869;DHT22;12115;47.128;15.422;2023-09-07T12:58:20;26.00;93.90
23869;DHT22;12115;47.128;15.422;2023-09-07T13:00:47;26.10;95.70
23869;DHT22;12115;47.128;15.422;2023-09-07T13:03:19;26.10;94.80
23869;DHT22;12115;47.128;15.422;2023-09-07T13:05:47;25.90;94.70
23869;DHT22;12115;47.128;15.422;2023-09-07T13:08:14;26.00;95.60
23869;DHT22;12115;47.128;15.422;2023-09-07T13:10:41;25.90;94.10
23869;DHT22;12115;47.128;15.422;2023-09-07T13:13:08;26.00;95.60
23869;DHT22;12115;47.128;15.422;2023-09-07T13:15:36;26.10;94.20
23869;DHT22;12115;47.128;15.422;2023-09-07T13:18:03;26.20;93.80
23869;DHT22;12115;47.128;15.422;2023-09-07T13:20:30;26.30;94.40
23869;DHT22;12115;47.128;15.422;2023-09-07T13:22:57;26.30;94.40
23869;DHT22;12115;47.128;15.422;2023-09-07T13:25:25;26.10;92.90
23869;DHT22;12115;47.128;15.422;2023-09-07T13:27:52;26.00;92.80
23869;DHT22;12115;47.128;15.422;2023-09-07T13:30:19;26.00;93.30
23869;DHT22;12115;47.128;15.422;2023-09-07T13:32:46;25.90;92.60
23869;DHT22;12115;47.128;15.422;2023-09-07T13:35:14;25.80;92.70
23869;DHT22;12115;47.128;15.422;2023-09-07T13:37:41;25.80;93.10
23869;DHT22;12115;47.128;15.422;2023-09-07T13:40:08;25.90;93.10
23869;DHT22;12115;47.128;15.422;2023-09-07T13:42:36;26.10;94.00
23869;DHT22;12115;47.128;15.422;2023-09-07T13:45:03;26.20;93.80
23869;DHT22;12115;47.128;15.422;2023-09-07T13:47:30;26.30;93.00
23869;DHT22;12115;47.128;15.422;2023-09-07T13:49:57;26.30;94.20
23869;DHT22;12115;47.128;15.422;2023-09-07T13:52:24;26.50;93.00
23869;DHT22;12115;47.128;15.422;2023-09-07T13:54:52;26.50;92.00
23869;DHT22;12115;47.128;15.422;2023-09-07T13:57:19;26.40;92.20
23869;DHT22;12115;47.128;15.422;2023-09-07T13:59:47;26.30;92.40
23869;DHT22;12115;47.128;15.422;2023-09-07T14:02:14;26.40;92.30
23869;DHT22;12115;47.128;15.422;2023-09-07T14:04:41;26.30;92.30
23869;DHT22;12115;47.128;15.422;2023-09-07T14:07:08;26.20;90.90
23869;DHT22;12115;47.128;15.422;2023-09-07T14:09:35;26.20;91.00
23869;DHT22;12115;47.128;15.422;2023-09-07T14:12:03;26.20;90.80
23869;DHT22;12115;47.128;15.422;2023-09-07T14:14:29;25.90;90.70
23869;DHT22;12115;47.128;15.422;2023-09-07T14:16:57;25.80;90.30
23869;DHT22;12115;47.128;15.422;2023-09-07T14:19:25;25.90;90.60
23869;DHT22;12115;47.128;15.422;2023-09-07T14:21:54;25.90;90.80
23869;DHT22;12115;47.128;15.422;2023-09-07T14:24:21;25.90;90.30
23869;DHT22;12115;47.128;15.422;2023-09-07T14:26:48;25.90;90.20
23869;DHT22;12115;47.128;15.422;2023-09-07T14:29:15;25.90;89.80
23869;DHT22;12115;47.128;15.422;2023-09-07T14:31:42;25.90;91.00
23869;DHT22;12115;47.128;15.422;2023-09-07T14:34:11;25.80;90.60
23869;DHT22;12115;47.128;15.422;2023-09-07T14:36:38;25.80;92.50
23869;DHT22;12115;47.128;15.422;2023-09-07T14:39:08;25.70;91.80
23869;DHT22;12115;47.128;15.422;2023-09-07T14:41:36;25.70;91.10
23869;DHT22;12115;47.128;15.422;2023-09-07T14:44:03;25.80;92.20
23869;DHT22;12115;47.128;15.422;2023-09-07T14:46:30;25.90;91.90
23869;DHT22;12115;47.128;15.422;2023-09-07T14:48:57;25.80;91.40
23869;DHT22;12115;47.128;15.422;2023-09-07T14:51:27;25.70;91.40
23869;DHT22;12115;47.128;15.422;2023-09-07T14:53:55;25.70;91.70
23869;DHT22;12115;47.128;15.422;2023-09-07T14:56:22;25.70;90.90
23869;DHT22;12115;47.128;15.422;2023-09-07T14:58:51;25.80;90.80
23869;DHT22;12115;47.128;15.422;2023-09-07T15:01:19;25.80;91.70
23869;DHT22;12115;47.128;15.422;2023-09-07T15:03:46;25.80;91.20
23869;DHT22;12115;47.128;15.422;2023-09-07T15:06:14;25.70;91.70
23869;DHT22;12115;47.128;15.422;2023-09-07T15:08:45;25.60;91.40
23869;DHT22;12115;47.128;15.422;2023-09-07T15:11:12;25.70;92.30
23869;DHT22;12115;47.128;15.422;2023-09-07T15:13:40;25.80;91.00
23869;DHT22;12115;47.128;15.422;2023-09-07T15:16:07;25.90;91.20
23869;DHT22;12115;47.128;15.422;2023-09-07T15:18:35;25.90;91.10
23869;DHT22;12115;47.128;15.422;2023-09-07T15:21:08;25.80;90.90
23869;DHT22;12115;47.128;15.422;2023-09-07T15:23:36;25.70;90.90